Terminal Aerodrome Forecast
Issued by NWS Milwaukee/Sullivan, WI

Home | Current Version | Previous Version | Text Only | Print | Product List | Glossary On
Versions: 1 2 3 4 5 6 7 8 9 10 11 12 13 14 15 16 17 18 19 20 21 22 23 24 25 26 27 28 29 30 31 32 33 34 35 36 37 38 39 40 41 42 43 44 45 46 47 48
000
FTUS43 KMKX 280902 AAA
TAFMSN
TAF AMD
KMSN 280902Z 2809/0106 14008KT P6SM -SHRA OVC025
     FM281100 17004KT 4SM BR OVC008
     FM281500 17005KT 3SM -SHRA BR OVC003
     FM281700 17006KT 3SM BR VCSH OVC003
     FM282000 19006KT 4SM BR VCSH OVC008
     FM282200 19005KT 4SM -SHRA BR VCTS OVC008CB
     FM010000 25004KT 2SM -SHRA BR OVC003
     FM010200 32006KT 2SM -SHRA BR OVC003=

USA.gov is the U.S. government's official web portal to all federal, state and local government web resources and services.